Farmington, WA

12:22 PM PST on December 27, 2014 (GMT -0800)
ITD Marsh Hill ID US | Change Station
CLOSE
Current Station
Personal Weather Station
Location: Potlatch, ID
Elevation: 3088 ft
Nearby Weather Stations
Active Advisory: Winter Storm Warning

Elev 3088 ft 47.05 °N, 116.86 °W | Updated 38 minutes ago

Snow
Snow
30 °F
Feels Like 30 °F
N
0
Wind Variable Wind from South
Gusts 0.0 mph

Today
High -- | Low -- °F
--% Chance of Precip.
Yesterday
High -- | Low -- °F
Precip. -- in
7:33 AM 4:05 PM
Waxing Crescent, 39% visible
Pressure 30.19 in
Visibility 1.0 miles
Clouds Overcast 1200 ft
Windchill 30 °F
Dew Point 29 °F
Humidity 97%
Rainfall 0.24 in
Snow Depth Not available.
UV 0 out of 12
Pollen .10 out of 12
Air Quality Not available.
Flu Activity Not available.
METAR KPUW 271953Z AUTO 11009KT 1SM -SN BR OVC012 M01/M02 A3011 RMK AO2 SLP224 P0001 T10061017

More Conditions Fewer Conditions

Pressure 30.19 in
Visibility 1.0 miles
Clouds Overcast 1200 ft
Windchill 30 °F
Dew Point 29 °F
Humidity 97%
Rainfall 0.24 in
Snow Depth Not available.
UV 0 out of 12
Pollen .10 out of 12
Air Quality Not available.
Flu Activity Not available.
METAR KPUW 271953Z AUTO 11009KT 1SM -SN BR OVC012 M01/M02 A3011 RMK AO2 SLP224 P0001 T10061017

More Conditions Fewer Conditions

10-Day Weather Forecast

Almanac

Astronomy

Dec. 27, 2014 Rise Set
Actual Time
Civil Twilight
Nautical Twilight
Astronomical Twilight
Moon
Length of Visible Light
Length of Day
Tomorrow will be .
, % of the Moon is Illuminated

Today's Extremes

State Highs State Lows

Community

WunderPhotos

Upload Photos

1,781,040 photos uploaded!

WunderBlogs® & News

Nearby

Air Quality

  Air Quality AQ Index Pollutant
Not available.

Snow Depth

Station Depth Elevation

Earthquake Activity

City Distance Mag. Time & Date
Minimum magnitude displayed is 2.5.

Coastal Water Temperatures

Place Temperature

Nearby Weather Stations